Sterling, AK (99672)

6:26 AM AKDT on August 03, 2015 (GMT -0800)
Funny River | | Change Station
CLOSE
Current Station
Personal Weather Station
Location: Funny River, AK
Elevation: 208 ft
Nearby Weather Stations

Elev 208 ft 60.51 °N, 150.80 °W | Updated 15 seconds ago

Partly Cloudy
Partly Cloudy
42.1 °F
Feels Like 42 °F
N
0.0
Wind Variable Wind from SE
Gusts 0.0 mph

Today
High -- | Low -- °F
--% Chance of Precip.
Yesterday
High -- | Low -- °F
Precip. -- in
5:45 AM 10:31 PM
Waning Gibbous, 86% visible
Pressure 30.11 in
Visibility 10.0 miles
Clouds Few 200 ft
Windchill 42 °F
Dew Point 39 °F
Humidity 88%
Rainfall 0.00 in
Snow Depth Not available.
UV 0 out of 12
Pollen Not available.
Air Quality Not available.
Flu Activity Not available.
SPECI PAEN 031355Z 00000KT 10SM FEW002 07/06 A3011 RMK AO2 T00670056

More Conditions Fewer Conditions

Pressure 30.11 in
Visibility 10.0 miles
Clouds Few 200 ft
Windchill 42 °F
Dew Point 39 °F
Humidity 88%
Rainfall 0.00 in
Snow Depth Not available.
UV 0 out of 12
Pollen Not available.
Air Quality Not available.
Flu Activity Not available.
SPECI PAEN 031355Z 00000KT 10SM FEW002 07/06 A3011 RMK AO2 T00670056

More Conditions Fewer Conditions

10-Day Weather Forecast

×

Almanac

Astronomy

Aug. 03, 2015 Rise Set
Actual Time
Civil Twilight
Nautical Twilight
Astronomical Twilight
Moon
Length of Visible Light
Length of Day
Tomorrow will be .
, % of the Moon is Illuminated

Today's Extremes

State Highs State Lows

Community

WunderPhotos

Upload Photos

1,843,638 photos uploaded!

WunderBlogs® & News

Nearby

Air Quality

  Air Quality AQ Index Pollutant
Not available.

Snow Depth

Station Depth Elevation

Earthquake Activity

City Distance Mag. Time & Date
Minimum magnitude displayed is 2.5.

Coastal Water Temperatures

Place Temperature

Stations

Nearby Weather Stations

Station Location Temp. Windchill Dew Point Humidity Wind Precip. Elev Updated Type